Time;durP1;ratioP1;P1;durP2;ratioP2;P2;SDS_P1;SDS_P2;PMS_P1;PMS_P2;Temp;Humidity;BMP_temperature;BMP_pressure;BME280_temperature;BME280_humidity;BME280_pressure;Samples;Min_cycle;Max_cycle;Signal;HPM_P1;HPM_P2
2021/04/05 00:02:00;;;;;;;12.97;6.87;;;;;;;1.32;70.90;98890.47;5072880;28;20110;-79
2021/04/05 00:04:27;;;;;;;15.37;7.73;;;;;;;1.26;70.00;98874.94;5080730;28;20049;-79
2021/04/05 00:06:54;;;;;;;19.17;7.33;;;;;;;1.17;69.95;98868.53;5079863;28;20392;-79
2021/04/05 00:09:20;;;;;;;14.53;6.70;;;;;;;1.37;69.28;98888.25;5073454;28;20044;-79
2021/04/05 00:11:46;;;;;;;12.47;6.43;;;;;;;1.35;69.32;98868.78;5071328;28;20056;-79
2021/04/05 00:14:13;;;;;;;12.67;7.00;;;;;;;1.37;69.74;98875.72;5072930;28;20131;-78
2021/04/05 00:17:17;;;;;;;16.73;7.07;;;;;;;1.17;69.53;98857.84;5078154;28;20052;-78
2021/04/05 00:19:44;;;;;;;15.83;6.80;;;;;;;1.33;69.12;98868.09;5058050;28;20086;-78
2021/04/05 00:22:12;;;;;;;12.87;7.00;;;;;;;1.26;69.14;98849.00;5073163;28;20041;-78
2021/04/05 00:24:38;;;;;;;15.00;6.87;;;;;;;1.34;69.01;98859.03;5072381;28;20052;-78
2021/04/05 00:27:06;;;;;;;11.50;6.40;;;;;;;1.30;69.09;98861.16;5073342;28;20555;-78
2021/04/05 00:29:32;;;;;;;14.23;7.50;;;;;;;1.24;69.37;98854.50;5072183;28;20051;-78
2021/04/05 00:31:58;;;;;;;18.80;7.33;;;;;;;1.16;70.07;98858.81;5072958;28;20051;-78
2021/04/05 00:34:24;;;;;;;12.00;7.10;;;;;;;1.04;71.06;98871.44;5068263;28;20524;-78
2021/04/05 00:36:51;;;;;;;12.63;6.57;;;;;;;0.92;71.13;98857.28;5072678;28;20048;-78
2021/04/05 00:39:18;;;;;;;16.23;6.77;;;;;;;0.92;70.52;98851.06;5072749;28;20048;-79
2021/04/05 00:41:44;;;;;;;15.60;6.57;;;;;;;1.05;70.86;98855.25;5066434;28;20052;-78
2021/04/05 00:44:10;;;;;;;17.00;6.97;;;;;;;1.08;69.98;98846.09;5092511;28;20052;-78
2021/04/05 00:46:36;;;;;;;14.13;6.30;;;;;;;0.97;70.32;98838.97;5086646;28;20044;-78
2021/04/05 00:49:04;;;;;;;11.97;6.47;;;;;;;1.00;70.39;98832.53;5052833;28;20064;-78
2021/04/05 00:51:31;;;;;;;15.93;7.00;;;;;;;1.03;69.63;98833.09;5059442;28;20048;-78
2021/04/05 00:53:58;;;;;;;16.97;6.57;;;;;;;0.97;69.58;98819.41;5084209;28;20113;-79
2021/04/05 00:56:27;;;;;;;10.95;6.32;;;;;;;1.08;70.60;98824.66;5092326;28;20450;-78
2021/04/05 00:58:54;;;;;;;14.00;6.22;;;;;;;1.03;70.59;98809.00;5092847;28;20492;-78
2021/04/05 01:01:23;;;;;;;12.07;7.00;;;;;;;1.09;70.36;98810.31;5092651;28;20051;-78
2021/04/05 01:03:50;;;;;;;11.50;6.43;;;;;;;1.13;70.56;98811.75;5072978;28;20053;-78
2021/04/05 01:06:20;;;;;;;18.23;6.93;;;;;;;1.12;70.83;98814.56;5071968;28;20428;-78
2021/04/05 01:08:46;;;;;;;17.55;7.22;;;;;;;1.08;70.82;98800.56;5072713;28;20052;-78
2021/04/05 01:11:14;;;;;;;24.00;8.07;;;;;;;1.06;71.31;98800.72;5070018;28;20044;-78
2021/04/05 01:13:42;;;;;;;18.37;7.00;;;;;;;1.13;71.00;98803.72;5072076;28;20098;-78
2021/04/05 01:16:08;;;;;;;10.13;6.23;;;;;;;1.19;70.25;98800.50;5071593;28;20051;-78
2021/04/05 01:18:35;;;;;;;10.63;7.03;;;;;;;1.17;69.96;98782.88;5072583;28;20052;-78
2021/04/05 01:21:02;;;;;;;14.10;6.63;;;;;;;1.05;70.63;98782.97;5072330;28;20044;-78
2021/04/05 01:23:29;;;;;;;14.50;7.40;;;;;;;1.06;70.94;98792.69;5072189;28;20504;-78
2021/04/05 01:25:55;;;;;;;15.60;6.57;;;;;;;1.07;69.79;98785.50;5071738;28;20485;-78
2021/04/05 01:28:22;;;;;;;15.53;6.60;;;;;;;1.01;70.20;98760.13;5072508;28;20052;-78
2021/04/05 01:30:50;;;;;;;8.93;6.13;;;;;;;0.90;70.91;98757.50;5071212;28;20048;-78
2021/04/05 01:33:20;;;;;;;13.60;6.07;;;;;;;1.03;69.83;98757.31;5072069;28;20052;-79
2021/04/05 01:35:48;;;;;;;16.75;7.20;;;;;;;1.05;70.57;98777.63;5071970;28;20048;-78
2021/04/05 01:38:17;;;;;;;13.47;6.63;;;;;;;1.02;70.21;98767.19;5072410;28;20052;-79
2021/04/05 01:40:50;;;;;;;17.20;6.25;;;;;;;0.99;70.73;98766.56;5071047;28;20048;-79
2021/04/05 01:43:16;;;;;;;10.60;6.33;;;;;;;1.10;70.68;98749.56;5061759;28;20114;-78
2021/04/05 01:45:43;;;;;;;13.93;6.37;;;;;;;0.94;71.12;98753.59;5051363;28;20049;-77
2021/04/05 01:48:10;;;;;;;15.93;6.63;;;;;;;0.98;71.47;98751.47;5052111;28;20501;-78
2021/04/05 01:50:37;;;;;;;17.77;7.13;;;;;;;0.91;70.90;98742.31;5071589;28;20067;-77
2021/04/05 01:53:06;;;;;;;13.80;6.83;;;;;;;0.90;71.60;98746.81;5072191;28;20075;-78
2021/04/05 01:55:34;;;;;;;15.57;6.67;;;;;;;0.93;71.33;98732.31;5071688;28;20040;-77
2021/04/05 01:58:01;;;;;;;13.37;6.77;;;;;;;0.86;71.83;98724.00;5071844;28;20558;-78
2021/04/05 02:00:30;;;;;;;12.90;6.30;;;;;;;0.91;70.75;98708.38;5062616;28;20055;-78
2021/04/05 02:02:57;;;;;;;16.03;6.27;;;;;;;1.04;69.95;98708.97;5092015;28;20766;-78
2021/04/05 02:05:32;;;;;;;16.13;6.97;;;;;;;1.02;70.76;98704.72;5091391;28;20051;-78
2021/04/05 02:07:58;;;;;;;12.23;6.03;;;;;;;1.02;70.47;98704.72;5091044;28;20048;-78
2021/04/05 02:10:26;;;;;;;10.63;5.83;;;;;;;1.06;70.59;98700.81;5070467;28;20040;-78
2021/04/05 02:12:54;;;;;;;17.47;6.50;;;;;;;1.05;70.43;98686.59;5071714;28;20132;-78
2021/04/05 02:15:24;;;;;;;16.40;6.93;;;;;;;1.19;71.06;98698.75;5063558;28;20044;-78
2021/04/05 02:17:51;;;;;;;12.88;6.78;;;;;;;1.29;70.60;98681.84;5072193;28;20052;-78
2021/04/05 02:20:18;;;;;;;16.10;6.67;;;;;;;1.34;70.75;98683.13;5071970;28;20067;-78
2021/04/05 02:22:47;;;;;;;22.77;7.00;;;;;;;1.45;70.62;98679.47;5075291;28;20049;-78
2021/04/05 02:25:14;;;;;;;14.77;6.63;;;;;;;1.49;70.34;98680.03;5074707;28;20485;-78
2021/04/05 02:27:42;;;;;;;11.37;6.40;;;;;;;1.48;70.47;98676.53;5075479;28;20053;-78
2021/04/05 02:30:09;;;;;;;10.83;5.50;;;;;;;1.51;70.65;98676.25;5075336;28;20052;-78
2021/04/05 02:32:39;;;;;;;17.83;6.43;;;;;;;1.53;70.64;98676.09;5075823;28;20056;-77
2021/04/05 02:35:07;;;;;;;9.90;5.90;;;;;;;1.62;69.55;98677.09;5070526;28;20048;-78
2021/04/05 02:37:34;;;;;;;10.97;6.43;;;;;;;1.55;69.83;98671.44;5075194;28;20048;-78
2021/04/05 02:40:01;;;;;;;15.23;5.63;;;;;;;1.40;70.50;98671.88;5075230;28;20060;-78
2021/04/05 02:42:27;;;;;;;15.43;6.53;;;;;;;1.42;70.63;98683.28;5074453;28;20044;-78
2021/04/05 02:44:55;;;;;;;11.63;5.67;;;;;;;1.38;70.58;98673.81;5073554;28;20053;-77
2021/04/05 02:47:22;;;;;;;12.27;5.37;;;;;;;1.33;69.75;98660.00;5075152;28;20408;-78
2021/04/05 02:49:50;;;;;;;12.43;6.33;;;;;;;1.26;70.87;98666.91;5075025;28;20127;-78
2021/04/05 02:52:16;;;;;;;11.60;5.83;;;;;;;1.20;71.56;98675.47;5074698;28;20060;-78
2021/04/05 02:54:46;;;;;;;18.77;6.30;;;;;;;1.08;71.82;98660.53;5074215;28;20114;-78
2021/04/05 02:57:13;;;;;;;15.40;6.10;;;;;;;0.89;72.15;98656.81;5075387;28;20090;-78
2021/04/05 02:59:40;;;;;;;10.93;5.97;;;;;;;0.84;71.86;98657.22;5095336;28;20056;-78
2021/04/05 03:02:07;;;;;;;13.57;5.87;;;;;;;0.87;71.75;98656.09;5090346;28;20036;-78
2021/04/05 03:04:34;;;;;;;9.53;5.57;;;;;;;0.91;71.81;98654.00;5081061;28;20040;-78
2021/04/05 03:07:02;;;;;;;9.07;5.77;;;;;;;0.82;71.91;98651.13;5074523;28;20055;-78
2021/04/05 03:09:28;;;;;;;14.27;5.83;;;;;;;0.86;71.35;98655.25;5074797;28;20048;-78
2021/04/05 03:11:57;;;;;;;20.57;7.00;;;;;;;0.88;71.66;98637.22;5072837;28;20051;-78
2021/04/05 03:14:24;;;;;;;17.08;6.97;;;;;;;0.79;72.57;98618.47;5074164;28;20059;-78
2021/04/05 03:16:53;;;;;;;9.60;5.90;;;;;;;0.99;72.16;98605.97;5074713;28;20045;-78
2021/04/05 03:19:21;;;;;;;11.90;5.57;;;;;;;1.15;71.62;98608.97;5074530;28;20052;-78
2021/04/05 03:21:48;;;;;;;13.57;5.50;;;;;;;1.12;71.87;98597.69;5074359;28;20530;-78
2021/04/05 03:24:16;;;;;;;14.50;6.33;;;;;;;1.08;71.66;98582.88;5073093;28;20485;-77
2021/04/05 03:26:42;;;;;;;20.03;6.60;;;;;;;1.00;72.46;98568.34;5074426;28;20048;-78
2021/04/05 03:29:12;;;;;;;12.17;6.10;;;;;;;1.03;72.19;98575.28;5074343;28;20059;-78
2021/04/05 03:31:40;;;;;;;16.08;5.85;;;;;;;1.12;71.55;98563.72;5067134;28;20048;-77
2021/04/05 03:34:11;;;;;;;11.97;5.40;;;;;;;1.34;71.28;98585.84;5063659;28;20052;-78
2021/04/05 03:36:41;;;;;;;10.70;5.50;;;;;;;1.32;70.93;98561.88;5058735;28;20049;-77
2021/04/05 03:39:07;;;;;;;;;;;;;;;1.40;70.54;98566.53;5054494;28;20573;-77
2021/04/05 03:41:49;;;;;;;12.67;5.43;;;;;;;1.33;71.09;98555.56;5053782;28;19943;-78
2021/04/05 03:44:25;;;;;;;12.47;5.67;;;;;;;1.35;71.58;98547.38;5056346;28;20098;-78
2021/04/05 03:46:56;;;;;;;11.67;5.13;;;;;;;1.19;72.37;98555.97;5052898;28;20041;-78
2021/04/05 03:49:29;;;;;;;13.13;5.97;;;;;;;0.96;73.29;98548.19;5054127;28;20099;-78
2021/04/05 03:52:03;;;;;;;9.90;5.53;;;;;;;1.08;72.85;98561.47;5065206;28;20106;-78
2021/04/05 03:54:39;;;;;;;9.87;4.57;;;;;;;1.05;73.19;98563.44;5073064;28;20074;-78
2021/04/05 03:57:08;;;;;;;12.10;5.37;;;;;;;1.17;71.97;98564.13;5073504;28;20071;-78
2021/04/05 03:59:39;;;;;;;13.07;5.80;;;;;;;1.31;71.48;98554.88;5073455;28;20062;-78
2021/04/05 04:02:11;;;;;;;10.43;5.63;;;;;;;1.13;72.17;98540.47;5073174;28;20040;-78
2021/04/05 04:04:47;;;;;;;9.37;5.57;;;;;;;1.02;72.83;98526.25;5072838;28;20067;-78
2021/04/05 04:07:19;;;;;;;13.57;6.23;;;;;;;0.94;72.22;98526.09;5072532;28;20109;-78
2021/04/05 04:09:48;;;;;;;23.10;6.13;;;;;;;0.96;72.10;98531.31;5073132;28;20094;-78
2021/04/05 04:12:16;;;;;;;9.63;5.87;;;;;;;1.15;72.05;98528.63;5071256;28;20105;-78
2021/04/05 04:14:44;;;;;;;11.03;5.67;;;;;;;1.20;71.82;98518.34;5072572;28;20833;-78
2021/04/05 04:17:12;;;;;;;11.83;6.27;;;;;;;1.19;71.88;98519.34;5072697;28;20056;-78
2021/04/05 04:19:39;;;;;;;11.60;5.10;;;;;;;0.98;72.20;98481.13;5073280;28;20106;-78
2021/04/05 04:22:07;;;;;;;9.97;4.80;;;;;;;0.98;72.86;98507.91;5072911;28;20449;-78
2021/04/05 04:24:34;;;;;;;10.10;5.47;;;;;;;0.96;73.08;98504.53;5072609;28;20060;-78
2021/04/05 04:27:01;;;;;;;12.00;5.73;;;;;;;1.15;72.68;98506.38;5072081;28;20067;-78
2021/04/05 04:29:28;;;;;;;12.90;5.67;;;;;;;1.15;72.68;98498.34;5072552;28;20060;-78
2021/04/05 04:31:54;;;;;;;8.83;4.77;;;;;;;1.12;72.78;98499.47;5072963;28;20074;-78
2021/04/05 04:34:22;;;;;;;11.73;4.97;;;;;;;1.06;72.68;98494.69;5072201;28;20448;-78
2021/04/05 04:36:49;;;;;;;7.47;4.70;;;;;;;1.13;72.66;98492.28;5072591;28;20481;-78
2021/04/05 04:39:17;;;;;;;11.17;5.07;;;;;;;1.21;72.53;98484.41;5072727;28;20059;-78
2021/04/05 04:41:45;;;;;;;9.00;4.97;;;;;;;1.06;73.52;98481.28;5072351;28;20080;-78
2021/04/05 04:44:12;;;;;;;11.10;5.17;;;;;;;0.92;73.46;98471.00;5072320;28;20048;-78
2021/04/05 04:46:40;;;;;;;15.10;5.87;;;;;;;0.96;72.53;98488.47;5072892;28;20044;-78
2021/04/05 04:49:08;;;;;;;12.40;5.47;;;;;;;0.94;73.40;98474.41;5071887;28;20511;-78
2021/04/05 04:51:38;;;;;;;10.63;5.37;;;;;;;1.01;73.13;98479.03;5072646;28;20570;-78
2021/04/05 04:54:07;;;;;;;12.18;5.22;;;;;;;0.91;73.61;98475.50;5072507;28;20044;-77
2021/04/05 04:56:34;;;;;;;10.13;5.80;;;;;;;0.93;73.37;98467.34;5072653;28;20415;-78
2021/04/05 04:59:07;;;;;;;6.23;4.63;;;;;;;1.05;73.34;98459.03;5081036;28;20106;-78
2021/04/05 05:01:36;;;;;;;13.20;5.80;;;;;;;0.99;74.30;98461.44;5072397;28;20045;-77
2021/04/05 05:04:08;;;;;;;8.97;4.70;;;;;;;1.01;73.42;98460.31;5072158;28;20052;-78
2021/04/05 05:06:36;;;;;;;10.80;5.43;;;;;;;1.11;73.01;98454.94;5072468;28;20131;-78
2021/04/05 05:09:03;;;;;;;11.93;5.43;;;;;;;1.16;73.42;98455.38;5072287;28;20429;-77
2021/04/05 05:11:30;;;;;;;13.60;5.37;;;;;;;1.14;73.24;98443.09;5070885;28;20048;-77
2021/04/05 05:13:57;;;;;;;12.20;5.80;;;;;;;1.16;73.68;98443.78;5072482;28;20052;-78
2021/04/05 05:16:24;;;;;;;13.30;5.70;;;;;;;1.18;73.07;98447.19;5054092;28;20045;-78
2021/04/05 05:18:52;;;;;;;10.13;5.30;;;;;;;1.28;73.76;98448.03;5051213;28;20139;-78
2021/04/05 05:21:25;;;;;;;11.03;4.97;;;;;;;1.28;73.44;98441.81;5052234;28;20045;-78
2021/04/05 05:23:54;;;;;;;13.27;6.47;;;;;;;1.30;73.82;98427.28;5054755;28;20103;-78
2021/04/05 05:26:22;;;;;;;10.80;4.87;;;;;;;1.37;73.68;98423.06;5071828;28;20052;-78
2021/04/05 05:28:53;;;;;;;9.60;5.07;;;;;;;1.42;74.23;98422.63;5072483;28;20075;-78
2021/04/05 05:31:19;;;;;;;10.13;5.97;;;;;;;1.47;74.18;98416.81;5052039;28;20642;-77
2021/04/05 05:33:46;;;;;;;8.40;5.40;;;;;;;1.52;73.05;98412.72;5051312;28;20056;-78
2021/04/05 05:36:15;;;;;;;13.57;5.20;;;;;;;1.59;73.51;98405.78;5051452;28;20559;-78
2021/04/05 05:38:42;;;;;;;10.47;4.77;;;;;;;1.73;72.49;98407.16;5052527;28;20048;-78
2021/04/05 05:41:15;;;;;;;10.40;4.77;;;;;;;1.93;72.03;98413.25;5052188;28;20052;-78
2021/04/05 05:43:47;;;;;;;10.27;5.33;;;;;;;2.00;71.83;98392.06;5071814;28;20403;-78
2021/04/05 05:46:23;;;;;;;11.87;6.00;;;;;;;2.19;70.94;98401.00;5071695;28;20060;-78
2021/04/05 05:49:15;;;;;;;11.13;5.13;;;;;;;2.27;71.04;98410.00;5063997;28;20445;-77
2021/04/05 05:52:02;;;;;;;11.77;4.93;;;;;;;2.33;71.04;98408.53;5048139;28;20053;-78
2021/04/05 05:54:44;;;;;;;19.63;5.37;;;;;;;2.48;70.29;98395.44;5060115;28;20049;-78
2021/04/05 05:57:19;;;;;;;12.82;5.82;;;;;;;2.55;70.70;98382.28;5069769;28;20049;-78
2021/04/05 05:59:51;;;;;;;8.10;5.03;;;;;;;2.63;70.38;98382.34;5067948;28;20436;-77
2021/04/05 06:02:48;;;;;;;11.45;6.00;;;;;;;2.68;70.34;98385.41;5075724;28;20052;-77
2021/04/05 06:05:34;;;;;;;12.03;5.20;;;;;;;2.69;70.66;98383.56;5073497;28;20060;-78
2021/04/05 06:08:24;;;;;;;11.17;4.93;;;;;;;2.90;71.36;98393.97;5075153;28;20493;-77
2021/04/05 06:11:00;;;;;;;10.77;4.85;;;;;;;2.92;71.79;98381.22;5077595;28;20048;-78
2021/04/05 06:13:36;;;;;;;10.50;4.80;;;;;;;2.88;72.44;98382.56;5095873;28;20055;-77
2021/04/05 06:16:14;;;;;;;8.65;5.15;;;;;;;3.08;71.48;98384.06;5074185;28;20052;-77
2021/04/05 06:18:50;;;;;;;11.90;5.25;;;;;;;3.18;70.33;98371.38;5071171;28;20098;-77
2021/04/05 06:21:30;;;;;;;10.65;4.72;;;;;;;3.25;72.05;98366.22;5074754;28;20086;-78
2021/04/05 06:24:02;;;;;;;11.00;4.95;;;;;;;3.33;69.67;98365.44;5079985;28;20064;-80
2021/04/05 06:26:51;;;;;;;10.15;4.85;;;;;;;3.48;68.49;98376.44;5067289;28;20075;-80
2021/04/05 06:29:29;;;;;;;8.73;4.13;;;;;;;3.40;68.20;98357.56;5075601;28;20044;-80
2021/04/05 06:32:12;;;;;;;10.02;4.88;;;;;;;3.47;68.70;98358.63;5074663;28;20098;-80
2021/04/05 06:34:52;;;;;;;9.00;4.50;;;;;;;3.67;68.14;98343.97;5073616;28;20044;-80
2021/04/05 06:37:27;;;;;;;9.73;4.80;;;;;;;3.69;68.39;98324.97;5074530;28;20121;-80
2021/04/05 06:39:58;;;;;;;10.93;4.25;;;;;;;3.86;68.64;98321.34;5074619;28;20488;-80
2021/04/05 06:42:46;;;;;;;15.10;5.00;;;;;;;4.07;67.14;98339.72;5072758;28;20044;-80
2021/04/05 06:45:28;;;;;;;9.55;5.10;;;;;;;4.01;66.13;98324.25;5089313;28;20063;-80
2021/04/05 06:48:13;;;;;;;9.32;3.90;;;;;;;4.15;66.75;98333.53;5095164;28;20052;-80
2021/04/05 06:50:47;;;;;;;9.07;4.53;;;;;;;4.21;67.19;98326.66;5094536;28;20048;-79
2021/04/05 06:53:39;;;;;;;13.60;4.32;;;;;;;4.42;66.78;98336.94;5095010;28;20129;-79
2021/04/05 06:56:11;;;;;;;15.27;5.07;;;;;;;4.60;66.04;98332.25;5062868;28;20067;-80
2021/04/05 06:58:48;;;;;;;10.38;4.55;;;;;;;4.62;64.45;98305.16;5055478;28;20413;-80
2021/04/05 07:01:36;;;;;;;8.07;4.20;;;;;;;4.83;64.06;98320.81;5055118;28;20045;-80
2021/04/05 07:04:36;;;;;;;9.10;4.47;;;;;;;4.95;64.36;98330.25;5055563;28;20048;-79
2021/04/05 07:07:21;;;;;;;11.70;4.18;;;;;;;5.07;63.24;98313.72;5074652;28;20052;-80
2021/04/05 07:10:03;;;;;;;11.45;4.60;;;;;;;5.39;64.09;98328.13;5075241;28;20056;-79
2021/04/05 07:13:01;;;;;;;18.60;4.65;;;;;;;5.40;62.97;98311.78;5074329;28;20120;-79
2021/04/05 07:15:43;;;;;;;18.80;6.03;;;;;;;5.50;64.38;98311.63;5074649;28;20487;-79
2021/04/05 07:18:31;;;;;;;17.98;5.28;;;;;;;5.70;63.44;98305.81;5074769;28;20072;-77
2021/04/05 07:21:08;;;;;;;15.57;4.55;;;;;;;5.67;61.91;98312.38;5074803;28;20082;-77
2021/04/05 07:24:03;;;;;;;12.93;4.45;;;;;;;5.86;61.16;98311.13;5074379;28;20417;-78
2021/04/05 07:26:44;;;;;;;16.27;4.82;;;;;;;6.03;59.94;98317.31;5074629;28;20052;-79
2021/04/05 07:29:15;;;;;;;11.77;5.68;;;;;;;6.18;59.43;98307.44;5074404;28;20049;-79
2021/04/05 07:31:54;;;;;;;9.05;4.90;;;;;;;6.23;59.37;98297.97;5073196;28;20044;-79
2021/04/05 07:34:33;;;;;;;14.52;4.10;;;;;;;6.28;59.22;98296.44;5075423;28;20064;-79
2021/04/05 07:37:14;;;;;;;1546.32;607.35;;;;;;;6.68;59.35;98282.81;5077167;28;20075;-79
2021/04/05 07:39:46;;;;;;;172.63;64.07;;;;;;;7.04;58.13;98284.84;5086325;28;20113;-79
2021/04/05 07:42:20;;;;;;;30.60;10.07;;;;;;;7.34;55.98;98303.81;5089049;28;20040;-79
2021/04/05 07:45:00;;;;;;;21.10;7.20;;;;;;;7.40;56.12;98279.56;5073634;28;20123;-80
2021/04/05 07:47:37;;;;;;;16.00;5.55;;;;;;;7.54;56.71;98288.72;5071699;28;20113;-79
2021/04/05 07:50:10;;;;;;;17.33;5.72;;;;;;;7.57;55.79;98280.22;5071465;28;20044;-78
2021/04/05 07:52:45;;;;;;;13.10;4.60;;;;;;;7.45;56.81;98270.88;5074183;28;20056;-78
2021/04/05 07:55:13;;;;;;;11.85;5.43;;;;;;;7.37;56.81;98263.72;5053145;28;20100;-77
2021/04/05 07:57:56;;;;;;;11.05;4.85;;;;;;;7.14;57.11;98257.56;5056640;28;20440;-78
2021/04/05 08:00:47;;;;;;;20.00;8.98;;;;;;;7.34;57.62;98263.25;5072399;28;20052;-79
2021/04/05 08:03:31;;;;;;;13.48;5.57;;;;;;;7.52;57.73;98262.88;5053400;28;20424;-78
2021/04/05 08:06:00;;;;;;;27.05;7.28;;;;;;;7.78;57.46;98268.66;5068748;28;20520;-79
2021/04/05 08:08:47;;;;;;;14.27;5.68;;;;;;;7.97;57.17;98247.41;5073275;28;20420;-79
2021/04/05 08:11:32;;;;;;;18.48;6.40;;;;;;;8.24;56.07;98259.38;5072713;28;20056;-79
2021/04/05 08:14:11;;;;;;;18.73;6.80;;;;;;;8.75;54.93;98239.47;5082853;28;20139;-79
2021/04/05 08:16:50;;;;;;;20.13;6.38;;;;;;;9.13;54.32;98241.00;5065667;28;20166;-78
2021/04/05 08:19:24;;;;;;;23.73;9.20;;;;;;;9.21;54.02;98244.41;5060351;28;20120;-80
2021/04/05 08:21:56;;;;;;;22.75;7.55;;;;;;;9.08;52.75;98228.03;5053182;28;20057;-80
2021/04/05 08:24:32;;;;;;;27.80;7.00;;;;;;;9.17;52.47;98229.56;5052696;28;20053;-80
2021/04/05 08:27:06;;;;;;;36.28;8.82;;;;;;;9.44;52.64;98243.28;5052966;28;20049;-78
2021/04/05 08:29:44;;;;;;;45.40;16.90;;;;;;;9.46;51.80;98243.09;5066984;28;20067;-80
2021/04/05 08:32:24;;;;;;;152.88;60.85;;;;;;;9.43;51.91;98252.44;5070722;28;20045;-79
2021/04/05 08:35:18;;;;;;;23.23;8.90;;;;;;;9.51;51.54;98252.28;5054561;28;20049;-78
2021/04/05 08:37:58;;;;;;;20.95;6.95;;;;;;;9.55;52.04;98236.44;5073065;28;20626;-79
2021/04/05 08:40:48;;;;;;;144.23;62.17;;;;;;;9.55;51.95;98242.69;5058056;28;20053;-80
2021/04/05 08:43:39;;;;;;;26.33;11.05;;;;;;;9.45;50.82;98236.78;5053547;28;20045;-79
2021/04/05 08:46:13;;;;;;;56.42;22.52;;;;;;;9.42;50.96;98239.91;5063786;28;20060;-77
2021/04/05 08:48:44;;;;;;;22.88;7.80;;;;;;;9.42;51.14;98228.22;5072604;28;20045;-77
2021/04/05 08:51:14;;;;;;;20.00;8.18;;;;;;;9.47;50.90;98237.44;5072594;28;20591;-78
2021/04/05 08:53:51;;;;;;;21.20;7.40;;;;;;;9.35;51.65;98226.31;5073030;28;20052;-78
2021/04/05 08:56:39;;;;;;;18.73;7.07;;;;;;;9.15;51.47;98225.34;5082105;28;20059;-79
2021/04/05 08:59:08;;;;;;;20.95;7.13;;;;;;;9.06;52.06;98210.28;5046111;28;20409;-79
2021/04/05 09:01:43;;;;;;;24.77;8.05;;;;;;;8.77;52.13;98220.28;5066103;28;20630;-80
2021/04/05 09:04:11;;;;;;;21.50;7.25;;;;;;;8.89;52.56;98226.84;5071852;28;20400;-79
2021/04/05 09:07:03;;;;;;;21.70;8.57;;;;;;;8.99;53.20;98242.78;5063262;28;20048;-80
2021/04/05 09:09:33;;;;;;;25.75;10.18;;;;;;;9.11;53.26;98237.63;5072515;28;20060;-80
2021/04/05 09:12:01;;;;;;;18.83;7.45;;;;;;;9.03;52.54;98225.06;5072615;28;20051;-81
2021/04/05 09:14:33;;;;;;;20.75;7.75;;;;;;;8.93;52.34;98216.47;5071734;28;20049;-80
2021/04/05 09:17:43;;;;;;;21.45;11.07;;;;;;;9.03;52.88;98204.22;5078117;28;20499;-80
2021/04/05 09:20:41;;;;;;;28.17;11.27;;;;;;;9.04;52.17;98196.94;5030338;28;20135;-80
2021/04/05 09:23:25;;;;;;;22.83;8.80;;;;;;;9.10;51.88;98182.56;5069031;28;20041;-80
2021/04/05 09:26:26;;;;;;;31.67;15.90;;;;;;;9.35;51.15;98201.09;5073288;28;20063;-80
2021/04/05 09:29:15;;;;;;;34.60;14.60;;;;;;;9.53;51.30;98189.69;5072815;28;20051;-80
2021/04/05 09:32:09;;;;;;;25.77;9.75;;;;;;;9.42;50.79;98188.38;5074619;28;20409;-80
2021/04/05 09:35:19;;;;;;;22.10;9.80;;;;;;;9.68;50.52;98189.50;5076471;28;20621;-80
2021/04/05 09:38:11;;;;;;;22.02;7.88;;;;;;;9.99;50.08;98193.59;5050385;28;20060;-80
2021/04/05 09:41:10;;;;;;;30.77;10.57;;;;;;;9.90;49.54;98174.75;5063339;28;20048;-81
2021/04/05 09:44:03;;;;;;;27.95;13.02;;;;;;;10.00;48.57;98179.81;5073004;28;20049;-81
2021/04/05 09:47:02;;;;;;;17.80;8.07;;;;;;;9.76;48.01;98183.94;5062322;28;20444;-79
2021/04/05 09:49:44;;;;;;;27.70;6.35;;;;;;;9.57;47.75;98171.94;5091542;28;20059;-80
2021/04/05 09:52:24;;;;;;;16.08;5.88;;;;;;;9.52;47.96;98158.16;5097005;28;20055;-80
2021/04/05 09:54:53;;;;;;;20.98;6.43;;;;;;;9.59;46.14;98153.59;5078831;28;20056;-80
2021/04/05 09:57:30;;;;;;;20.13;7.00;;;;;;;9.70;45.83;98153.00;5076193;28;20056;-80
2021/04/05 10:00:00;;;;;;;16.58;6.90;;;;;;;9.65;45.31;98144.66;5093704;28;20044;-79
2021/04/05 10:02:33;;;;;;;19.40;6.90;;;;;;;9.69;44.49;98145.06;5077191;28;20044;-80
2021/04/05 10:05:00;;;;;;;24.63;6.18;;;;;;;9.71;43.87;98142.97;5076165;28;20045;-80
2021/04/05 10:07:28;;;;;;;20.23;5.68;;;;;;;9.64;42.90;98134.00;5075542;28;20493;-80
2021/04/05 10:10:01;;;;;;;16.17;4.47;;;;;;;9.77;44.10;98150.31;5076013;28;20045;-80
2021/04/05 10:12:30;;;;;;;16.00;6.35;;;;;;;9.78;43.70;98140.28;5076018;28;20446;-80
2021/04/05 10:14:57;;;;;;;33.05;7.32;;;;;;;9.83;43.32;98145.94;5076042;28;20494;-80
2021/04/05 10:17:25;;;;;;;14.75;5.35;;;;;;;9.72;43.68;98109.38;5055238;28;20060;-80
2021/04/05 10:19:55;;;;;;;19.17;6.35;;;;;;;10.18;43.94;98118.66;5061083;28;20064;-80
2021/04/05 10:22:21;;;;;;;24.88;6.07;;;;;;;10.37;43.25;98123.28;5075814;28;20389;-78
2021/04/05 10:24:56;;;;;;;20.10;6.10;;;;;;;10.31;42.53;98126.78;5075483;28;20053;-80
2021/04/05 10:27:27;;;;;;;20.20;6.07;;;;;;;10.39;42.39;98118.47;5075260;28;20413;-80
2021/04/05 10:29:55;;;;;;;;;;;;;;;10.43;42.89;98122.44;5056231;28;20386;-80
2021/04/05 10:32:23;;;;;;;13.85;5.40;;;;;;;10.61;42.56;98100.06;5055391;28;19925;-80
2021/04/05 10:34:53;;;;;;;15.10;5.65;;;;;;;10.92;42.64;98103.97;5055216;28;20065;-79
2021/04/05 10:37:25;;;;;;;11.73;5.32;;;;;;;11.13;42.29;98119.16;5055951;28;20048;-79
2021/04/05 10:39:53;;;;;;;14.55;6.45;;;;;;;11.11;42.19;98085.91;5070153;28;20057;-79
2021/04/05 10:42:26;;;;;;;19.88;5.93;;;;;;;11.19;42.61;98116.66;5057279;28;20080;-79
2021/04/05 10:44:58;;;;;;;18.33;5.63;;;;;;;10.81;43.40;98110.06;5068117;28;20074;-79
2021/04/05 10:47:28;;;;;;;19.52;5.95;;;;;;;10.40;44.34;98111.13;5075099;28;20053;-78
2021/04/05 10:49:56;;;;;;;;;;;;;;;10.37;44.87;98108.84;5075895;28;20052;-79
2021/04/05 10:52:26;;;;;;;23.13;5.72;;;;;;;10.28;45.43;98091.88;5075129;28;19932;-78
2021/04/05 10:54:54;;;;;;;16.20;6.38;;;;;;;10.53;45.70;98110.31;5075027;28;20057;-78
2021/04/05 10:57:29;;;;;;;25.10;5.85;;;;;;;10.24;46.28;98112.38;5075298;28;20404;-78
2021/04/05 10:59:57;;;;;;;18.58;7.40;;;;;;;10.11;46.80;98107.75;5075501;28;20049;-78
2021/04/05 11:02:29;;;;;;;13.15;5.60;;;;;;;10.19;47.34;98093.13;5074924;28;20045;-78
2021/04/05 11:04:57;;;;;;;20.75;6.60;;;;;;;10.19;47.36;98101.28;5075106;28;20051;-78
2021/04/05 11:07:26;;;;;;;20.33;7.05;;;;;;;10.17;47.94;98087.91;5074772;28;20048;-78
2021/04/05 11:09:55;;;;;;;21.38;8.18;;;;;;;10.04;48.08;98083.34;5076586;28;20059;-78
2021/04/05 11:12:23;;;;;;;31.50;8.30;;;;;;;10.41;47.64;98094.63;5074433;28;20064;-78
2021/04/05 11:14:53;;;;;;;14.48;6.25;;;;;;;10.40;47.45;98089.41;5074587;28;20948;-79
2021/04/05 11:17:23;;;;;;;15.77;6.70;;;;;;;10.31;47.32;98085.19;5074047;28;20052;-78
2021/04/05 11:19:53;;;;;;;;;;;;;;;10.14;47.87;98090.22;5075404;28;20075;-81
2021/04/05 11:22:24;;;;;;;16.55;7.50;;;;;;;10.06;48.12;98078.53;5072966;28;19931;-78
2021/04/05 11:24:55;;;;;;;28.55;7.03;;;;;;;9.99;48.04;98072.25;5068856;28;20098;-79
2021/04/05 11:27:25;;;;;;;25.90;7.75;;;;;;;9.93;48.62;98081.22;5077766;28;20127;-79
2021/04/05 11:29:54;;;;;;;18.17;6.38;;;;;;;9.90;48.82;98077.03;5070683;28;20053;-79
2021/04/05 11:32:24;;;;;;;18.58;6.57;;;;;;;9.78;48.39;98058.88;5054303;28;20516;-79
2021/04/05 11:34:57;;;;;;;29.52;7.40;;;;;;;10.00;48.90;98075.81;5068016;28;20083;-79
2021/04/05 11:37:29;;;;;;;24.45;7.55;;;;;;;9.88;48.27;98059.31;5074044;28;20476;-79
2021/04/05 11:40:01;;;;;;;17.73;5.80;;;;;;;9.82;47.89;98066.38;5074061;28;20485;-79
2021/04/05 11:42:46;;;;;;;;;;;;;;;;;;;;;
2021/04/05 11:45:17;;;;;;;59.97;7.95;;;;;;;10.01;48.76;98083.75;5073908;28;20048;-79
2021/04/05 11:48:00;;;;;;;;;;;;;;;10.03;49.35;98089.78;5069241;28;20083;-79
2021/04/05 11:50:30;;;;;;;25.13;7.30;;;;;;;9.75;49.35;98051.97;5066335;28;19920;-79
2021/04/05 11:53:02;;;;;;;29.15;9.70;;;;;;;9.82;50.13;98063.66;5082077;28;20051;-79
2021/04/05 11:55:31;;;;;;;21.08;7.15;;;;;;;9.90;49.96;98081.63;5073427;28;20102;-79
2021/04/05 11:58:02;;;;;;;26.45;7.10;;;;;;;9.68;51.00;98072.81;5073970;28;20044;-79
2021/04/05 12:00:36;;;;;;;24.95;7.95;;;;;;;9.68;51.11;98054.69;5073649;28;20052;-79
2021/04/05 12:03:09;;;;;;;26.60;7.68;;;;;;;9.62;51.37;98074.50;5073851;28;20136;-80